Nearby METAR Reports

 

EGDR - Culdrose (navy), United Kingdom
Distance from station: S 10mi, 17km
Updated: 21/04/2024 00:20
Clear
Clear
 Wind from NE
Wind: NE 8 mph , 13 km/h
Temperature: 6°C
Wind Chill: 3°C
Dew Point: 3°C
Humidity: 81%
Barometer: 1030 hPa
Clouds: Clear
Visibility: 6 miles , 10 km
2024/04/20 23:20 EGDR 202320Z AUTO 05007KT 9999 NCD 06/03 Q1030
EGHQ - Newquay, United Kingdom
Distance from station: NE 17mi, 27km
Updated: 21/04/2024 00:50
Clear
Clear
 Wind from ENE
Wind: ENE 6 mph , 9 km/h
Temperature: 8°C
Wind Chill: 6°C
Dew Point: 3°C
Humidity: 71%
Barometer: 1030 hPa
Clouds: Clear
Visibility: 6 miles , 10 km
2024/04/20 23:50 EGHQ 202350Z AUTO 06005KT 030V100 9999 NCD 08/03 Q1030
 
EGHC - Lands End, United Kingdom
Distance from station: WSW 22mi, 35km
Updated: 20/04/2024 17:50
NOT Current
Clear
Clear
 Wind from SE
Wind: SE 8 mph , 13 km/h
Temperature: 11°C
Dew Point: 3°C
Humidity: 58%
Barometer: 1029 hPa
Summary: Clear
Visibility: greater than 7 miles , 10 km
2024/04/20 16:50 EGHC 201650Z 14007KT CAVOK 11/03 Q1029